KMCF/MCF METAR and TAF weather

Enter ICAO airport designator
Station Type Date Time Source
KMCF METAR 2021/07/26 15:56 UTC NOAA

KMCF 261556Z AUTO 17004KT 10SM CLR 30/23 A2994 RMK AO2 SLP141 T03020226 FZRANO $


Station Type Date Time Source
KMCF Decoded METAR 2021/07/26 15:56 UTC NOAA

Macdill Air Force Base, Fl., FL, United States (KMCF) 27-51N 082-30W 4M
Jul 26, 2021 - 11:56 AM EDT / 2021.07.26 1556 UTC
Wind: from the S (170 degrees) at 5 MPH (4 KT):0
Visibility: 10 mile(s):0
Sky conditions: clear
Temperature: 86.4 F (30.2 C)
Heat index: 93.0 F (33.9 C):1
Dew Point: 72.7 F (22.6 C)
Relative Humidity: 63%
Pressure (altimeter): 29.94 in. Hg (1013 hPa)
ob: KMCF 261556Z AUTO 17004KT 10SM CLR 30/23 A2994 RMK AO2 SLP141 T03020226 FZRANO
cycle: 16

Station Type Date Time Source
KMCF TAF 2021/07/26 09:09 UTC NOAA

TAF TAF KMCF 260900Z 2609/2715 04006KT 9999 FEW050 QNH2988INS
BECMG 2615/2616 19006KT 9999 FEW050 QNH2990INS
BECMG 2617/2618 25009KT 9999 VCTS SCT040CB SCT100 QNH2993INS
TEMPO 2618/2623 25010G15KT 6000 -TSRA BKN020CB BKN100
BECMG 2701/2702 18009KT 9999 NSW FEW100 QNH2990INS TX33/2619Z TN25/2611Z

Example: see airport list